• Join FlightAware (Why Join?)
  • Login
  • US Flag 
09:11AM EDT


 

Airport Tracker/Info


-or-


 

Live Flight TrackerFlight Track Log ✈ TAP661 ✈ 10-May-2013 ✈ EHAM / AMS - LPPT / LIS

Flight Track Log - Related Links

Times and Time Zones

All times are in EDT time to prevent confusion due to time zone crossing. See the TAP661 flight status page for this flight to view local times or setup timezone preferences in your user account.

Time Position Orientation Groundspeed Altitude Reporting Facility
EDT Latitude Longitude Course Direction KTS MPH feet Rate Location/Type
12:25PM 52.2930 4.7470 241° Southwest 147 169 400  Level FlightAware
12:26PM 52.2840 4.7260 235° Southwest 136 157 1,900 3,120 Climbing FlightAware
12:26PM 52.2780 4.7110 237° Southwest 135 155 2,500 1,860 Climbing FlightAware
12:27PM 52.2680 4.6880 235° Southwest 149 171 3,300 1,500 Climbing FlightAware
12:27PM 52.2590 4.6820 202° Southwest 170 196 3,500 1,380 Climbing FlightAware
12:27PM 52.2210 4.7050 160° South 206 237 4,600 1,980 Climbing FlightAware
12:28PM 52.1910 4.7310 152° Southeast 239 275 6,000 2,700 Climbing FlightAware
12:28PM 52.1670 4.7520 152° Southeast 247 284 7,100 2,400 Climbing FlightAware
12:29PM 52.1500 4.7590 166° South 247 284 7,600 1,980 Climbing FlightAware
12:29PM 52.1130 4.7620 177° South 271 312 8,600 2,160 Climbing FlightAware
12:30PM 52.0800 4.7610 181° South 283 326 9,600 1,740 Climbing FlightAware
12:32PM 51.9269 4.5420 221° Southwest  Level Estimated
12:32PM 51.8250 4.6900 221° Southwest 378 435 14,300  Level FlightAware
12:33PM 51.7640 4.6420 206° Southwest 378 435 15,700 2,160 Climbing FlightAware
12:34PM 51.6970 4.5890 206° Southwest 392 451 17,200 2,040 Climbing FlightAware
12:34PM 51.6210 4.5310 205° Southwest 395 455 18,600 1,740 Climbing FlightAware
12:35PM 51.5540 4.4800 205° Southwest 411 473 19,700 1,740 Climbing FlightAware
12:36PM 51.4760 4.4200 206° Southwest 409 471 21,100 420 Climbing FlightAware
12:36PM 51.4342 4.3878 206° Southwest 434 499 20,200 1,500 Descending FlightAware UK
12:37PM 51.4070 4.3680 206° Southwest 415 478 22,100 1,500 Climbing FlightAware
12:37PM 51.3275 4.3069 206° Southwest 444 511 21,700 1,560 Descending FlightAware UK
12:37PM 51.3260 4.3060 206° Southwest 428 493 23,300 1,200 Climbing FlightAware
12:38PM 51.2838 4.2742 206° Southwest 450 518 22,200 1,200 Descending FlightAware UK
12:38PM 51.2530 4.2530 206° Southwest 436 502 24,100 1,440 Climbing FlightAware
12:38PM 51.1849 4.2056 206° Southwest 458 527 23,500 1,320 Descending FlightAware UK
12:39PM 51.1860 4.2080 206° Southwest 437 503 25,000 3,120 Climbing FlightAware
12:39PM 51.0930 4.1470 202° Southwest 436 502 26,300 1,500 Climbing FlightAware
12:40PM 51.0190 4.0980 203° Southwest 437 503 27,200 1,200 Climbing FlightAware
12:41PM 50.9460 4.0490 203° Southwest 439 505 27,900 1,020 Climbing FlightAware
12:41PM 50.8600 3.9910 203° Southwest 436 502 28,700 -300 Climbing FlightAware
12:42PM 50.8125 3.9598 203° Southwest 466 536 27,600 1,020 Descending FlightAware UK
12:42PM 50.7852 3.9417 203° Southwest 447 514 29,300 2,040 Climbing FlightAware ADS-B
12:43PM 50.6849 3.8753 203° Southwest 449 517 29,900 840 Climbing FlightAware ADS-B
12:43PM 50.6155 3.8298 203° Southwest 453 521 30,600 -540 Climbing FlightAware ADS-B
12:44PM 50.5691 3.7994 203° Southwest 466 536 29,400 840 Descending FlightAware UK
12:44PM 50.5300 3.7740 203° Southwest 454 522 31,300 2,760 Climbing FlightAware
12:45PM 50.4767 3.7389 203° Southwest 454 522 31,600 960 Climbing FlightAware ADS-B
12:45PM 50.4146 3.6986 202° Southwest 456 525 32,200 1,140 Climbing FlightAware ADS-B
12:46PM 50.3550 3.6599 202° Southwest 455 524 32,800 1,140 Climbing FlightAware ADS-B
12:46PM 50.2938 3.6202 203° Southwest 451 519 33,400 1,020 Climbing FlightAware ADS-B
12:47PM 50.2240 3.5750 202° Southwest 450 518 34,000 1,020 Climbing FlightAware ADS-B
12:47PM 50.1578 3.5324 202° Southwest 449 517 34,600 780 Climbing FlightAware ADS-B
12:48PM 50.0978 3.4939 202° Southwest 451 519 34,900 360 Climbing FlightAware ADS-B
12:48PM 50.0371 3.4551 202° Southwest 448 516 35,000 60 Climbing FlightAware ADS-B
12:49PM 49.9759 3.4158 202° Southwest 448 516 35,000  Level FlightAware ADS-B
12:50PM 49.9133 3.3757 202° Southwest 448 516 35,000 -1,560 Level FlightAware ADS-B
12:50PM 49.8629 3.3418 202° Southwest 1 1 33,500  Descending FlightAware UK
12:50PM 49.8517 3.3367 202° Southwest 450 518 35,000  Climbing FlightAware ADS-B
12:50PM 49.8054 3.3056 202° Southwest 1 1 33,500  Descending FlightAware UK
12:51PM 49.7870 3.2958 202° Southwest 452 520 35,000 2,100 Climbing FlightAware ADS-B
12:51PM 49.7249 3.2564 202° Southwest 451 519 35,000 -1,800 Level FlightAware ADS-B
12:51PM 49.6902 3.2346 202° Southwest 1 1 33,500  Descending FlightAware UK
12:52PM 49.6641 3.2181 202° Southwest 452 520 35,000  Climbing FlightAware ADS-B
12:52PM 49.6324 3.1976 202° Southwest 1 1 33,500 -1,740 Descending FlightAware UK
12:53PM 49.5677 3.1355 212° Southwest 1 1 33,500 2,040 Level FlightAware UK
12:53PM 49.5537 3.1232 212° Southwest 450 518 35,000 6,900 Climbing FlightAware ADS-B
12:53PM 49.5469 3.1154 216° Southwest 447 514 35,000 -4,140 Level FlightAware ADS-B
12:53PM 49.5194 3.0827 216° Southwest 1 1 33,500  Descending FlightAware UK
12:53PM 49.4970 3.0509 216° Southwest 445 512 35,000 2,640 Climbing FlightAware ADS-B
12:54PM 49.4686 3.0062 226° Southwest 443 510 35,000  Level FlightAware ADS-B
12:54PM 49.4569 2.9835 232° Southwest 442 509 35,000 -3,480 Level FlightAware ADS-B
12:54PM 49.4391 2.9376 232° Southwest 1 1 33,500  Descending FlightAware UK
12:54PM 49.4239 2.9014 232° Southwest 441 507 35,000  Climbing FlightAware ADS-B
12:55PM 49.4015 2.8431 232° Southwest 1 1 33,500  Descending FlightAware UK
12:55PM 49.3911 2.8184 232° Southwest 440 506 35,000  Climbing FlightAware ADS-B
12:55PM 49.3763 2.7805 232° Southwest 1 1 33,500  Descending FlightAware UK
12:55PM 49.3583 2.7353 232° Southwest 439 505 35,000  Climbing FlightAware ADS-B
12:56PM 49.3386 2.6862 232° Southwest 1 1 33,500  Descending FlightAware UK
12:56PM 49.3261 2.6536 232° Southwest 439 505 35,000  Climbing FlightAware ADS-B
12:56PM 49.3004 2.5880 232° Southwest 1 1 33,500  Descending FlightAware UK
12:56PM 49.2919 2.5678 232° Southwest 439 505 35,000  Climbing FlightAware ADS-B
12:57PM 49.2748 2.5236 232° Southwest 1 1 33,500  Descending FlightAware UK
12:57PM 49.2599 2.4875 232° Southwest 440 506 35,000  Climbing FlightAware ADS-B
12:57PM 49.2430 2.4443 232° Southwest 460 529 33,500  Descending FlightAware UK
12:57PM 49.2261 2.4027 232° Southwest 440 506 35,000  Climbing FlightAware ADS-B
12:58PM 49.1986 2.3329 232° Southwest 464 534 33,500  Descending FlightAware UK
12:58PM 49.1909 2.3147 232° Southwest 439 505 35,000  Climbing FlightAware ADS-B
12:58PM 49.1734 2.2701 232° Southwest 466 536 33,500  Descending FlightAware UK
12:59PM 49.1573 2.2309 232° Southwest 434 499 35,000 1,920 Climbing FlightAware ADS-B
12:59PM 49.1257 2.1523 238° Southwest 429 494 35,000 -1,920 Level FlightAware ADS-B
12:59PM 49.1045 2.0984 238° Southwest 458 527 33,400  Descending FlightAware UK
01:00PM 49.0932 2.0718 238° Southwest 427 491 35,000  Climbing FlightAware ADS-B
01:00PM 49.0740 2.0234 238° Southwest 456 525 33,400  Descending FlightAware UK
01:00PM 49.0617 1.9940 238° Southwest 425 489 35,000 2,280 Climbing FlightAware ADS-B
01:01PM 49.0305 1.9173 238° Southwest 425 489 35,000 -1,800 Level FlightAware ADS-B
01:01PM 49.0054 1.8544 238° Southwest 456 525 33,400  Descending FlightAware UK
01:01PM 48.9981 1.8373 238° Southwest 427 491 35,000  Climbing FlightAware ADS-B
01:01PM 48.9803 1.7928 238° Southwest 456 525 33,400  Descending FlightAware UK
01:02PM 48.9672 1.7616 238° Southwest 428 493 35,000  Climbing FlightAware ADS-B
01:02PM 48.9430 1.7011 238° Southwest 458 527 33,400  Descending FlightAware UK
01:02PM 48.9332 1.6790 238° Southwest 430 495 35,000  Climbing FlightAware ADS-B
01:02PM 48.9177 1.6397 238° Southwest 458 527 33,400  Descending FlightAware UK
01:03PM 48.9001 1.5983 238° Southwest 431 496 35,000 120 Climbing FlightAware ADS-B
01:03PM 48.8799 1.5479 238° Southwest 460 529 33,500  Descending FlightAware UK
01:03PM 48.8675 1.5189 238° Southwest 432 497 35,000  Climbing FlightAware ADS-B
01:04PM 48.8422 1.4562 238° Southwest 462 532 33,500 180 Descending FlightAware UK
01:04PM 48.8348 1.4400 238° Southwest 431 496 35,100 5,280 Climbing FlightAware ADS-B
01:04PM 48.8220 1.4110 236° Southwest 432 497 35,100 -240 Level FlightAware ADS-B
01:04PM 48.8013 1.3760 228° Southwest 434 499 35,000 -180 Descending FlightAware ADS-B
01:05PM 48.7570 1.3113 224° Southwest 434 499 35,000 -1,800 Level FlightAware ADS-B
01:05PM 48.7287 1.2687 224° Southwest 460 529 33,500  Descending FlightAware UK
01:05PM 48.7119 1.2448 224° Southwest 433 498 35,000 2,100 Climbing FlightAware ADS-B
01:06PM 48.6685 1.1805 224° Southwest 434 499 35,000 -1,920 Level FlightAware ADS-B
01:06PM 48.6432 1.1421 224° Southwest 462 532 33,500  Descending FlightAware UK
01:06PM 48.6252 1.1163 224° Southwest 435 501 35,000  Climbing FlightAware ADS-B
01:06PM 48.5998 1.0776 224° Southwest 462 532 33,500  Descending FlightAware UK
01:07PM 48.5834 1.0546 224° Southwest 435 501 35,000  Climbing FlightAware ADS-B
01:07PM 48.5569 1.0145 224° Southwest 462 532 33,500  Descending FlightAware UK
01:07PM 48.5379 0.9878 224° Southwest 434 499 35,000  Climbing FlightAware ADS-B
01:07PM 48.5137 0.9512 224° Southwest 462 532 33,500  Descending FlightAware UK
01:08PM 48.4902 0.9180 224° Southwest 434 499 35,000  Climbing FlightAware ADS-B
01:08PM 48.4619 0.8755 224° Southwest 462 532 33,500  Descending FlightAware UK
01:08PM 48.4449 0.8517 224° Southwest 434 499 35,000  Climbing FlightAware ADS-B
01:09PM 48.4188 0.8123 224° Southwest 460 529 33,500  Descending FlightAware UK
01:09PM 48.4010 0.7870 224° Southwest 433 498 35,000 6,000 Climbing FlightAware
01:09PM 48.3966 0.7812 221° Southwest 434 499 35,000 -3,960 Level FlightAware ADS-B
01:09PM 48.3670 0.7370 221° Southwest 460 529 33,500  Descending FlightAware UK
01:09PM 48.3430 0.7030 221° Southwest 434 499 35,000 3,300 Climbing FlightAware
01:10PM 48.3267 0.6800 223° Southwest 435 501 35,000  Level FlightAware ADS-B
01:10PM 48.2820 0.6154 224° Southwest 436 502 35,000  Level FlightAware ADS-B
01:11PM 48.2368 0.5502 224° Southwest 436 502 35,000  Level FlightAware ADS-B
01:11PM 48.1889 0.4809 224° Southwest 437 503 35,000  Level FlightAware ADS-B
01:12PM 48.1343 0.4024 224° Southwest 437 503 35,000  Level FlightAware ADS-B
01:12PM 48.0897 0.3386 224° Southwest 436 502 35,000  Level FlightAware ADS-B
01:13PM 48.0457 0.2762 223° Southwest 436 502 35,000  Level FlightAware ADS-B
01:13PM 48.0016 0.2136 224° Southwest 436 502 35,000  Level FlightAware ADS-B
01:14PM 47.9485 0.1380 224° Southwest 435 501 35,000  Level FlightAware ADS-B
01:15PM 47.9009 0.0706 224° Southwest 435 501 35,000  Level FlightAware ADS-B
01:15PM 47.8553 0.0062 223° Southwest 436 502 35,000  Level FlightAware ADS-B
01:16PM 47.8099 -0.0578 223° Southwest 436 502 35,000  Level FlightAware ADS-B
01:16PM 47.7429 -0.1520 223° Southwest 436 502 35,000  Level FlightAware ADS-B
01:17PM 47.6982 -0.2146 223° Southwest 436 502 35,000  Level FlightAware ADS-B
01:17PM 47.6526 -0.2786 223° Southwest 434 499 35,000  Level FlightAware ADS-B
01:18PM 47.6082 -0.3404 223° Southwest 434 499 35,000  Level FlightAware ADS-B
01:18PM 47.5614 -0.4055 223° Southwest 432 497 35,000  Level FlightAware ADS-B
01:19PM 47.4870 -0.5090 223° Southwest 431 496 35,000  Level FlightAware
01:20PM 47.4524 -0.5560 223° Southwest 432 497 35,000  Level FlightAware ADS-B
01:20PM 47.4027 -0.6245 223° Southwest 431 496 35,000  Level FlightAware ADS-B
01:21PM 47.3590 -0.6850 223° Southwest 431 496 35,000  Level FlightAware
01:21PM 47.3546 -0.6908 222° Southwest 432 497 35,000  Level FlightAware ADS-B
01:21PM 47.3020 -0.7630 223° Southwest 431 496 35,000  Level FlightAware
01:22PM 47.2370 -0.8520 223° Southwest 431 496 35,000  Level FlightAware
01:23PM 47.1780 -0.9320 223° Southwest 430 495 35,000  Level FlightAware
01:23PM 47.1220 -1.0080 223° Southwest 430 495 35,000  Level FlightAware
01:24PM 47.0620 -1.0890 223° Southwest 430 495 35,000  Level FlightAware
01:25PM 46.9927 -1.1824 223° Southwest 431 496 35,000  Level FlightAware ADS-B
01:26PM 46.9400 -1.2530 222° Southwest 428 493 35,000  Level FlightAware
01:26PM 46.8730 -1.3430 223° Southwest 428 493 35,000  Level FlightAware
01:27PM 46.8120 -1.4240 222° Southwest 429 494 35,000  Level FlightAware
01:28PM 46.7460 -1.5130 223° Southwest 430 495 35,000  Level FlightAware
01:28PM 46.6880 -1.5890 222° Southwest 430 495 35,000  Level FlightAware
01:29PM 46.6280 -1.6680 222° Southwest 431 496 35,000  Level FlightAware
01:30PM 46.5600 -1.7580 222° Southwest 431 496 35,000  Level FlightAware
01:30PM 46.5010 -1.8350 222° Southwest 429 494 35,000  Level FlightAware
01:31PM 46.4360 -1.9210 222° Southwest 429 494 35,000  Level FlightAware
01:32PM 46.3770 -1.9980 222° Southwest 429 494 35,000  Level FlightAware
01:33PM 46.3190 -2.0730 222° Southwest 429 494 35,000  Level FlightAware
01:33PM 46.2510 -2.1620 222° Southwest 429 494 35,000  Level FlightAware
01:34PM 46.1910 -2.2380 221° Southwest 430 495 35,000  Level FlightAware
01:35PM 46.1250 -2.3240 222° Southwest 430 495 35,000  Level FlightAware
01:35PM 46.0680 -2.3970 222° Southwest 429 494 35,000  Level FlightAware
01:38PM 45.8903 -2.5868 217° Southwest  Level Estimated
01:39PM 45.8069 -2.6753 217° Southwest  Level Estimated
01:39PM 45.7580 -2.7920 217° Southwest 429 494 35,000  Level FlightAware
01:40PM 45.6960 -2.8700 221° Southwest 427 491 35,000  Level FlightAware
01:41PM 45.5970 -2.9940 221° Southwest 423 487 35,000  Level FlightAware
01:41PM 45.5310 -3.0770 221° Southwest 426 490 35,000  Level FlightAware
01:42PM 45.4750 -3.1470 221° Southwest 427 491 35,000  Level FlightAware
01:43PM 45.4000 -3.2400 221° Southwest 424 488 35,000  Level FlightAware
01:43PM 45.3490 -3.3020 221° Southwest 423 487 35,000  Level FlightAware
01:44PM 45.3120 -3.3490 222° Southwest 423 487 35,000  Level FlightAware
01:45PM 45.2140 -3.4690 221° Southwest 422 486 35,000  Level FlightAware
01:46PM 45.1670 -3.5270 221° Southwest 421 484 35,000  Level FlightAware
01:46PM 45.0920 -3.6190 221° Southwest 421 484 35,000  Level FlightAware
01:47PM 45.0400 -3.6820 221° Southwest 420 483 35,000  Level FlightAware
01:48PM 44.9740 -3.7620 221° Southwest 420 483 35,000  Level FlightAware
01:48PM 44.9050 -3.8460 221° Southwest 419 482 35,000  Level FlightAware
01:49PM 44.8460 -3.9170 220° Southwest 418 481 35,000  Level FlightAware
01:50PM 44.7690 -4.0100 221° Southwest 416 479 35,000  Level FlightAware
01:51PM 44.7000 -4.0930 221° Southwest 412 474 35,000  Level FlightAware
01:51PM 44.6410 -4.1640 221° Southwest 411 473 35,000  Level FlightAware
01:52PM 44.5780 -4.2390 220° Southwest 411 473 35,000  Level FlightAware
01:53PM 44.5050 -4.3260 220° Southwest 412 474 35,000  Level FlightAware
01:54PM 44.3920 -4.4520 219° Southwest 417 480 35,000  Level FlightAware
01:55PM 44.3180 -4.5160 212° Southwest 418 481 35,000  Level FlightAware
01:56PM 44.2430 -4.5810 212° Southwest 419 482 35,000  Level FlightAware
01:56PM 44.1920 -4.6230 211° Southwest 420 483 35,000  Level FlightAware
01:57PM 44.0940 -4.7070 212° Southwest 416 479 35,000  Level FlightAware
01:58PM 44.0180 -4.7710 211° Southwest 415 478 35,000  Level FlightAware
01:59PM 43.9440 -4.8330 211° Southwest 414 476 35,000  Level FlightAware
02:00PM 43.8690 -4.8960 211° Southwest 414 476 35,000  Level FlightAware
02:00PM 43.7960 -4.9570 211° Southwest 412 474 35,000  Level FlightAware
02:01PM 43.7490 -4.9960 211° Southwest 412 474 35,000  Level FlightAware
02:02PM 43.6730 -5.0590 211° Southwest 412 474 35,000  Level FlightAware
02:02PM 43.6000 -5.1200 211° Southwest 415 478 35,000  Level FlightAware
02:03PM 43.5260 -5.1820 211° Southwest 414 476 35,000  Level FlightAware
02:04PM 43.4520 -5.2440 211° Southwest 414 476 35,000  Level FlightAware
02:05PM 43.3830 -5.3040 212° Southwest 416 479 35,000  Level FlightAware
02:05PM 43.3190 -5.3600 212° Southwest 418 481 35,000  Level FlightAware
02:06PM 43.2440 -5.4240 212° Southwest 421 484 35,000  Level FlightAware
02:07PM 43.1790 -5.4810 213° Southwest 418 481 35,000  Level FlightAware
02:07PM 43.1180 -5.5340 212° Southwest 408 470 35,000  Level FlightAware
02:08PM 43.0480 -5.5940 212° Southwest 408 470 35,000  Level FlightAware
02:09PM 42.9840 -5.6500 213° Southwest 406 467 35,000  Level FlightAware
02:09PM 42.9200 -5.7040 212° Southwest 404 465 35,000  Level FlightAware
02:10PM 42.8480 -5.7650 212° Southwest 400 460 35,000  Level FlightAware
02:11PM 42.7860 -5.8180 212° Southwest 402 463 35,000  Level FlightAware
02:11PM 42.7220 -5.8710 211° Southwest 408 470 35,000  Level FlightAware
02:12PM 42.6500 -5.9250 209° Southwest 409 471 35,000  Level FlightAware
02:13PM 42.5810 -5.9770 209° Southwest 411 473 35,000  Level FlightAware
02:14PM 42.5070 -6.0330 209° Southwest 412 474 35,000  Level FlightAware
02:14PM 42.4410 -6.0820 209° Southwest 413 475 35,000  Level FlightAware
02:15PM 42.3720 -6.1330 209° Southwest 414 476 35,000  Level FlightAware
02:16PM 42.3050 -6.1830 209° Southwest 418 481 35,000  Level FlightAware
02:17PM 42.1640 -6.2870 209° Southwest 415 478 35,000  Level FlightAware
02:18PM 42.0460 -6.3740 209° Southwest 405 466 35,000  Level FlightAware
02:19PM 41.9820 -6.4210 209° Southwest 403 464 35,000  Level FlightAware
02:20PM 41.8510 -6.5150 208° Southwest 405 466 35,000  Level FlightAware
02:21PM 41.7660 -6.5750 208° Southwest 407 468 35,000  Level FlightAware
02:23PM 41.5860 -6.7630 218° Southwest 392 451 35,000  Level FlightAware
02:26PM 41.3801 -6.9456 214° Southwest  Level Estimated
02:27PM 41.2935 -7.0218 214° Southwest  Level Estimated
02:27PM 41.2160 -7.1520 213° Southwest 387 445 35,000  Level FlightAware
02:28PM 41.2070 -7.0979 213° Southwest  Level Estimated
02:28PM 41.1500 -7.2150 216° Southwest 392 451 35,000  Level FlightAware
02:29PM 41.0920 -7.2720 217° Southwest 392 451 35,000  Level FlightAware
02:30PM 41.0330 -7.3280 216° Southwest 392 451 35,000  Level FlightAware
02:30PM 40.9670 -7.3920 216° Southwest 390 449 35,000  Level FlightAware
02:33PM 40.7720 -7.5531 212° Southwest  Level Estimated
02:33PM 40.7650 -7.5850 212° Southwest 373 429 35,000  Level FlightAware
02:34PM 40.6690 -7.6760 216° Southwest 372 428 35,000  Level FlightAware
02:35PM 40.5360 -7.8020 216° Southwest 371 427 35,000  Level FlightAware
02:36PM 40.4750 -7.8600 216° Southwest 371 427 35,000  Level FlightAware
02:38PM 40.3420 -7.9850 216° Southwest 370 426 35,000  Level FlightAware
02:38PM 40.2940 -8.0290 215° Southwest 369 425 35,000  Level FlightAware
02:40PM 40.1750 -8.1410 216° Southwest 369 425 35,000 -540 Level FlightAware
02:41PM 40.0720 -8.2360 215° Southwest 358 412 33,700 -1,740 Descending FlightAware
02:44PM 39.8396 -8.4009 209° Southwest  Level Estimated
02:45PM 39.7484 -8.4652 208° Southwest  Level Estimated
02:45PM 39.7180 -8.4620 208° Southwest 351 404 26,300  Level FlightAware
02:46PM 39.5930 -8.5630 212° Southwest 344 396 25,000 -660 Descending FlightAware
02:47PM 39.5100 -8.6440 217° Southwest 336 387 24,600 -900 Descending FlightAware
02:48PM 39.4520 -8.6980 216° Southwest 334 384 23,300 -1,680 Descending FlightAware
02:49PM 39.4020 -8.7430 215° Southwest 322 371 22,300 -1,500 Descending FlightAware
02:50PM 39.3470 -8.7950 216° Southwest 310 357 21,200 -1,440 Descending FlightAware
02:50PM 39.3030 -8.8390 218° Southwest 290 334 20,300 -1,620 Descending FlightAware
02:51PM 39.2600 -8.8820 218° Southwest 287 330 19,100 -1,860 Descending FlightAware
02:52PM 39.2100 -8.9300 217° Southwest 286 329 17,700 -1,800 Descending FlightAware
02:52PM 39.1670 -8.9720 217° Southwest 285 328 16,600 -1,800 Descending FlightAware
02:53PM 39.1240 -9.0140 217° Southwest 287 330 15,300 -1,920 Descending FlightAware
02:54PM 39.0750 -9.0620 217° Southwest 286 329 13,900 -1,680 Descending FlightAware
02:54PM 39.0270 -9.0940 207° Southwest 286 329 13,000 -1,740 Descending FlightAware
02:55PM 38.9730 -9.1270 205° Southwest 288 331 11,500 -1,860 Descending FlightAware
02:56PM 38.9270 -9.1570 207° Southwest 289 333 10,400 -1,740 Descending FlightAware
02:56PM 38.8890 -9.1810 206° Southwest 287 330 9,500 -1,800 Descending FlightAware
02:57PM 38.8610 -9.1990 207° Southwest 284 327 8,800 -1,680 Descending FlightAware
02:57PM 38.8220 -9.2230 206° Southwest 273 314 8,000 -1,680 Descending FlightAware
02:58PM 38.7940 -9.2420 208° Southwest 270 311 7,300 -1,800 Descending FlightAware
02:58PM 38.7640 -9.2610 206° Southwest 270 311 6,500 -1,500 Descending FlightAware
02:59PM 38.7250 -9.2850 206° Southwest 267 307 5,800 -1,080 Descending FlightAware
02:59PM 38.7160 -9.2910 207° Southwest 254 292 5,700 -780 Descending FlightAware
03:00PM 38.6680 -9.3210 206° Southwest 240 276 5,100 -780 Descending FlightAware
03:00PM 38.6430 -9.3350 204° Southwest 230 265 4,800 -780 Descending FlightAware
03:00PM 38.6290 -9.3430 204° Southwest 231 266 4,600 -720 Descending FlightAware
03:01PM 38.5970 -9.3370 172° South 235 270 4,300 -480 Descending FlightAware
03:01PM 38.5900 -9.3270 132° Southeast 235 270 4,300 -240 Level FlightAware
03:01PM 38.5870 -9.3070 101° East 235 270 4,200 -240 Descending FlightAware
03:01PM 38.5910 -9.2890 74° East 230 265 4,200 -840 Level FlightAware
03:02PM 38.6130 -9.2550 50° Northeast 230 265 3,600 -1,020 Descending FlightAware
03:02PM 38.6290 -9.2300 51° Northeast 216 249 3,300 -1,020 Descending FlightAware
03:03PM 38.6510 -9.2090 37° Northeast 201 231 2,700 -1,200 Descending FlightAware
03:03PM 38.6790 -9.1910 27° Northeast 195 224 2,000 -1,080 Descending FlightAware
03:04PM 38.7050 -9.1770 23° Northeast 155 178 1,500 -840 Descending FlightAware
03:04PM 38.7190 -9.1690 24° Northeast 123 142 1,200 -780 Descending FlightAware
03:05PM 38.7290 -9.1640 21° North 122 140 1,000 -840 Descending FlightAware
03:05PM 38.7460 -9.1550 22° Northeast 125 144 600 -780 Descending FlightAware
03:06PM 38.7600 -9.1470 24° Northeast 137 158 300 -420 Descending FlightAware
03:06PM 38.7800 -9.1370 21° North 139 160 200 -180 Descending FlightAware
03:09PM 38.7813 -9.1359 33° Northeast  Level Estimated
03:10PM 38.7813 -9.1359 38° Northeast  Level Estimated
03:11PM 38.7813 -9.1359 38° Northeast  Level Estimated
03:12PM 38.7813 -9.1359 38° Northeast  Level Estimated
03:13PM 38.7813 -9.1359 38° Northeast  Level Estimated
03:14PM 38.7813 -9.1359 38° Northeast  Level Estimated
03:15PM 38.7813 -9.1359 38° Northeast  Level Estimated